Time;durP1;ratioP1;P1;durP2;ratioP2;P2;SDS_P1;SDS_P2;PMS_P1;PMS_P2;Temp;Humidity;BMP_temperature;BMP_pressure;BME280_temperature;BME280_humidity;BME280_pressure;Samples;Min_cycle;Max_cycle;Signal;HPM_P1;HPM_P2
2022/04/25 00:02:12;;;;;;;17.40;12.43;;;8.50;99.90;;;;;;5046201;28;20460;-92
2022/04/25 00:04:37;;;;;;;18.05;12.40;;;8.60;99.90;;;;;;5028036;28;20091;-92
2022/04/25 00:07:03;;;;;;;17.10;12.88;;;8.60;99.90;;;;;;5047209;28;20045;-91
2022/04/25 00:09:28;;;;;;;17.55;12.95;;;8.70;99.90;;;;;;5044963;28;20038;-92
2022/04/25 00:11:54;;;;;;;18.27;9.93;;;8.70;99.90;;;;;;5048827;28;20049;-91
2022/04/25 00:14:19;;;;;;;15.15;9.82;;;8.70;99.90;;;;;;5045311;28;20089;-94
2022/04/25 00:16:45;;;;;;;15.68;10.32;;;8.70;99.90;;;;;;5037805;28;20673;-90
2022/04/25 00:19:11;;;;;;;17.10;13.38;;;8.60;99.90;;;;;;5033448;28;21858;-91
2022/04/25 00:21:36;;;;;;;18.25;13.45;;;8.70;99.90;;;;;;5022506;28;20091;-92
2022/04/25 00:24:02;;;;;;;18.15;11.88;;;8.80;99.90;;;;;;5044963;28;20045;-89
2022/04/25 00:26:28;;;;;;;18.02;13.98;;;8.70;99.90;;;;;;5042925;28;20490;-90
2022/04/25 00:28:53;;;;;;;19.75;14.63;;;8.80;99.90;;;;;;5043165;28;20033;-88
2022/04/25 00:31:19;;;;;;;19.00;12.23;;;8.80;99.90;;;;;;5042594;28;20095;-89
2022/04/25 00:33:44;;;;;;;16.17;11.02;;;8.80;99.90;;;;;;5033612;28;20073;-90
2022/04/25 00:36:10;;;;;;;21.00;16.05;;;8.70;99.90;;;;;;5041920;28;20049;-87
2022/04/25 00:38:35;;;;;;;20.63;16.27;;;8.80;99.90;;;;;;5037903;28;20607;-88
2022/04/25 00:41:01;;;;;;;20.98;15.60;;;8.80;99.90;;;;;;5045859;28;20049;-90
2022/04/25 00:43:27;;;;;;;20.42;16.05;;;8.80;99.90;;;;;;5046556;28;20106;-89
2022/04/25 00:45:52;;;;;;;19.40;15.50;;;8.80;99.90;;;;;;5042651;28;20045;-90
2022/04/25 00:48:18;;;;;;;19.80;16.10;;;8.80;99.90;;;;;;5041793;28;20056;-92
2022/04/25 00:50:45;;;;;;;19.73;13.50;;;8.70;99.90;;;;;;5045515;28;20041;-91
2022/04/25 00:53:11;;;;;;;20.42;16.52;;;8.70;99.90;;;;;;5043387;28;20175;-91
2022/04/25 00:55:36;;;;;;;21.90;13.15;;;8.70;99.90;;;;;;5046541;28;20124;-91
2022/04/25 00:58:03;;;;;;;21.13;17.40;;;8.70;99.90;;;;;;5045928;28;20114;-90
2022/04/25 01:00:29;;;;;;;21.27;17.33;;;8.70;99.90;;;;;;5032747;28;20045;-92
2022/04/25 01:02:54;;;;;;;21.08;18.05;;;8.70;99.90;;;;;;5038845;28;20426;-91
2022/04/25 01:05:20;;;;;;;21.65;17.70;;;8.70;99.90;;;;;;5029692;28;20041;-93
2022/04/25 01:07:46;;;;;;;20.42;17.70;;;8.70;99.90;;;;;;5040935;28;20055;-92
2022/04/25 01:10:12;;;;;;;18.58;12.07;;;8.70;99.90;;;;;;5048995;28;20041;-92
2022/04/25 01:12:38;;;;;;;22.67;17.20;;;8.60;99.90;;;;;;5043575;28;20037;-90
2022/04/25 01:15:11;;;;;;;21.27;17.92;;;8.60;99.90;;;;;;5039156;28;20087;-90
2022/04/25 01:17:37;;;;;;;22.67;18.63;;;8.60;99.90;;;;;;5029577;28;21029;-92
2022/04/25 01:20:04;;;;;;;21.60;14.45;;;8.60;99.90;;;;;;5042188;28;20069;-93
2022/04/25 01:22:35;;;;;;;22.13;18.55;;;8.50;99.90;;;;;;5027328;28;20049;-92
2022/04/25 01:27:45;;;;;;;23.70;19.50;;;8.40;99.90;;;;;;5041516;28;20308;-93
2022/04/25 01:30:11;;;;;;;23.33;19.27;;;8.50;99.90;;;;;;5049115;28;20040;-91
2022/04/25 01:32:37;;;;;;;24.30;19.58;;;8.50;99.90;;;;;;5052042;28;20103;-92
2022/04/25 01:35:04;;;;;;;20.20;12.27;;;8.40;99.90;;;;;;5049918;28;20053;-92
2022/04/25 01:37:31;;;;;;;24.25;20.67;;;8.30;99.90;;;;;;5027537;28;20123;-93
2022/04/25 01:39:57;;;;;;;26.30;22.23;;;8.30;99.90;;;;;;5042857;28;20041;-92
2022/04/25 01:42:23;;;;;;;23.13;14.40;;;8.30;99.90;;;;;;5043578;28;20063;-91
2022/04/25 01:44:50;;;;;;;24.17;20.63;;;8.20;99.90;;;;;;5034703;28;20034;-90
2022/04/25 01:47:16;;;;;;;25.38;20.90;;;8.20;99.90;;;;;;5041659;28;20053;-90
2022/04/25 01:49:41;;;;;;;23.52;16.48;;;8.20;99.90;;;;;;5035593;28;20045;-90
2022/04/25 01:52:16;;;;;;;23.38;20.90;;;8.10;99.90;;;;;;5042522;28;20760;-89
2022/04/25 01:54:41;;;;;;;26.90;20.83;;;8.10;99.90;;;;;;5041447;28;20049;-90
2022/04/25 01:57:07;;;;;;;25.67;16.33;;;8.10;99.90;;;;;;5044147;28;20060;-93
2022/04/25 01:59:33;;;;;;;24.50;20.40;;;8.00;99.90;;;;;;5022526;28;20057;-91
2022/04/25 02:02:01;;;;;;;20.92;15.82;;;8.00;99.90;;;;;;5036169;28;20045;-91
2022/04/25 02:04:27;;;;;;;26.10;19.98;;;7.90;99.90;;;;;;5041229;28;20544;-92
2022/04/25 02:06:53;;;;;;;23.20;15.20;;;7.90;99.90;;;;;;5035626;28;20057;-89
2022/04/25 02:09:20;;;;;;;24.55;20.90;;;7.80;99.90;;;;;;5042387;28;20462;-90
2022/04/25 02:11:46;;;;;;;26.10;22.00;;;7.80;99.90;;;;;;5036872;28;20064;-89
2022/04/25 02:14:12;;;;;;;21.52;14.20;;;7.80;99.90;;;;;;5031167;28;20040;-92
2022/04/25 02:16:38;;;;;;;21.80;15.00;;;7.70;99.90;;;;;;5018339;28;20051;-90
2022/04/25 02:19:04;;;;;;;23.52;16.27;;;7.70;99.90;;;;;;5013925;28;20091;-90
2022/04/25 02:21:29;;;;;;;24.23;15.98;;;7.60;99.90;;;;;;5037956;28;20084;-89
2022/04/25 02:23:56;;;;;;;24.83;21.08;;;7.60;99.90;;;;;;5035675;28;20150;-91
2022/04/25 02:26:22;;;;;;;23.88;14.95;;;7.60;99.90;;;;;;5035797;28;20056;-91
2022/04/25 02:28:47;;;;;;;24.50;16.05;;;7.60;99.90;;;;;;5040627;28;20040;-92
2022/04/25 02:31:13;;;;;;;21.63;14.63;;;7.50;99.90;;;;;;5048002;28;20501;-89
2022/04/25 02:33:41;;;;;;;24.35;20.50;;;7.50;99.90;;;;;;5037723;28;20934;-90
2022/04/25 02:36:08;;;;;;;25.55;21.48;;;7.50;99.90;;;;;;5043706;28;20064;-93
2022/04/25 02:38:35;;;;;;;25.45;21.23;;;7.60;99.90;;;;;;5047114;28;20435;-90
2022/04/25 02:41:04;;;;;;;21.88;14.88;;;7.60;99.90;;;;;;5044400;28;20112;-91
2022/04/25 02:43:39;;;;;;;22.45;11.95;;;7.60;99.90;;;;;;5045897;28;20049;-92
2022/04/25 02:46:07;;;;;;;22.80;14.80;;;7.60;99.90;;;;;;5041531;28;20475;-90
2022/04/25 02:48:34;;;;;;;24.85;14.98;;;7.60;99.90;;;;;;5042974;28;20052;-93
2022/04/25 02:51:02;;;;;;;24.63;15.75;;;7.60;99.90;;;;;;5045424;28;20045;-93
2022/04/25 02:53:27;;;;;;;23.25;20.75;;;7.60;99.90;;;;;;5048641;28;20492;-93
2022/04/25 02:55:53;;;;;;;23.90;19.55;;;7.70;99.90;;;;;;5046937;28;20090;-91
2022/04/25 02:58:20;;;;;;;25.63;19.40;;;7.70;99.90;;;;;;5045288;28;20040;-93
2022/04/25 03:00:46;;;;;;;23.63;19.33;;;7.70;99.90;;;;;;5047703;28;20136;-93
2022/04/25 03:03:17;;;;;;;20.25;12.82;;;7.80;99.90;;;;;;5044513;28;20037;-91
2022/04/25 03:05:44;;;;;;;20.52;13.45;;;7.70;99.90;;;;;;5037409;28;20049;-94
2022/04/25 03:08:11;;;;;;;22.85;14.32;;;7.70;99.90;;;;;;5027872;28;20049;-93
2022/04/25 03:10:36;;;;;;;23.88;19.85;;;7.70;99.90;;;;;;5040412;28;20083;-91
2022/04/25 03:13:06;;;;;;;24.80;20.17;;;7.70;99.90;;;;;;5055547;28;20052;-95
2022/04/25 03:15:33;;;;;;;23.60;12.85;;;7.70;99.90;;;;;;5052484;28;20041;-93
2022/04/25 03:17:59;;;;;;;21.55;14.50;;;7.70;99.90;;;;;;5053349;28;20108;-94
2022/04/25 03:20:25;;;;;;;21.90;14.80;;;7.60;99.90;;;;;;5053445;28;20043;-96
2022/04/25 03:22:50;;;;;;;23.10;14.43;;;7.60;99.90;;;;;;5051229;28;20135;-94
2022/04/25 03:25:16;;;;;;;24.15;15.05;;;7.60;99.90;;;;;;5042692;28;20037;-89
2022/04/25 03:27:41;;;;;;;22.15;13.68;;;7.60;99.90;;;;;;5045572;28;20068;-93
2022/04/25 03:30:07;;;;;;;23.45;17.98;;;7.60;99.90;;;;;;5041946;28;20061;-91
2022/04/25 03:32:34;;;;;;;21.98;12.20;;;7.70;99.90;;;;;;5045296;28;20041;-90
2022/04/25 03:35:03;;;;;;;23.58;18.95;;;7.70;99.90;;;;;;5044794;28;20057;-92
2022/04/25 03:37:30;;;;;;;25.23;13.98;;;7.70;99.90;;;;;;5043487;28;20052;-93
2022/04/25 03:39:57;;;;;;;24.77;18.55;;;7.70;99.90;;;;;;5045624;28;20045;-92
2022/04/25 03:42:24;;;;;;;24.27;14.82;;;7.70;99.90;;;;;;5039737;28;20041;-90
2022/04/25 03:44:50;;;;;;;19.80;13.15;;;7.70;99.90;;;;;;5040707;28;20124;-92
2022/04/25 03:47:16;;;;;;;22.17;17.42;;;7.70;99.90;;;;;;5049057;28;20794;-91
2022/04/25 03:49:41;;;;;;;22.80;13.77;;;7.70;99.90;;;;;;5043967;28;20052;-92
2022/04/25 03:52:07;;;;;;;20.08;13.23;;;7.70;99.90;;;;;;5044977;28;20442;-91
2022/04/25 03:57:17;;;;;;;22.80;14.63;;;7.70;99.90;;;;;;5047915;28;20120;-90
2022/04/25 03:59:43;;;;;;;18.75;11.57;;;7.60;99.90;;;;;;5046774;28;20124;-91
2022/04/25 04:02:08;;;;;;;22.73;18.00;;;7.70;99.90;;;;;;5025434;28;20053;-91
2022/04/25 04:04:34;;;;;;;22.05;13.90;;;7.70;99.90;;;;;;5046877;28;20051;-92
2022/04/25 04:07:00;;;;;;;26.63;17.95;;;7.60;99.90;;;;;;5048967;28;20056;-91
2022/04/25 04:12:10;;;;;;;18.33;11.73;;;7.70;99.90;;;;;;5044457;28;21159;-90
2022/04/25 04:14:36;;;;;;;21.35;17.35;;;7.60;99.90;;;;;;5048660;28;20044;-91
2022/04/25 04:17:07;;;;;;;21.10;13.55;;;7.70;99.90;;;;;;5043887;28;20044;-91
2022/04/25 04:19:35;;;;;;;21.02;10.63;;;7.60;99.90;;;;;;5035270;28;20388;-93
2022/04/25 04:22:05;;;;;;;24.33;18.60;;;7.60;99.90;;;;;;5043161;28;20629;-91
2022/04/25 04:24:32;;;;;;;24.13;14.52;;;7.70;99.90;;;;;;5021153;28;20143;-90
2022/04/25 04:27:01;;;;;;;21.58;16.90;;;7.70;99.90;;;;;;5018789;28;20059;-94
2022/04/25 04:29:32;;;;;;;22.60;13.25;;;7.70;99.90;;;;;;5044501;28;20470;-91
2022/04/25 04:31:59;;;;;;;22.75;17.42;;;7.70;99.90;;;;;;5041655;28;20427;-91
2022/04/25 04:34:25;;;;;;;22.23;12.27;;;7.70;99.90;;;;;;5023202;28;20041;-90
2022/04/25 04:36:51;;;;;;;22.48;14.40;;;7.70;99.90;;;;;;5022809;28;20045;-91
2022/04/25 04:39:17;;;;;;;23.35;17.88;;;7.70;99.90;;;;;;5025538;28;20187;-93
2022/04/25 04:41:43;;;;;;;20.08;13.10;;;7.80;99.90;;;;;;5039728;28;20037;-91
2022/04/25 04:44:08;;;;;;;19.33;12.27;;;7.70;99.90;;;;;;5059528;28;20041;-91
2022/04/25 04:46:34;;;;;;;22.02;12.50;;;7.70;99.90;;;;;;5021620;28;20388;-91
2022/04/25 04:48:59;;;;;;;21.70;12.60;;;7.70;99.90;;;;;;5039344;28;20068;-90
2022/04/25 04:51:25;;;;;;;23.63;18.20;;;7.70;99.90;;;;;;5034773;28;20350;-96
2022/04/25 04:53:50;;;;;;;20.45;12.55;;;7.70;99.90;;;;;;5038362;28;20057;-87
2022/04/25 04:56:16;;;;;;;21.77;13.30;;;7.70;99.90;;;;;;5042218;28;20444;-86
2022/04/25 04:58:41;;;;;;;22.17;16.88;;;7.70;99.90;;;;;;5044244;28;20037;-87
2022/04/25 05:01:07;;;;;;;21.80;18.10;;;7.80;99.90;;;;;;5026691;28;20068;-86
2022/04/25 05:03:34;;;;;;;22.25;17.90;;;7.80;99.90;;;;;;5038939;28;20163;-87
2022/04/25 05:06:00;;;;;;;19.30;13.75;;;7.90;99.90;;;;;;5019363;28;20037;-86
2022/04/25 05:08:25;;;;;;;21.67;13.13;;;7.90;99.90;;;;;;5043283;28;20432;-86
2022/04/25 05:10:53;;;;;;;20.67;16.65;;;7.80;99.90;;;;;;5042610;28;20408;-87
2022/04/25 05:13:20;;;;;;;21.02;12.65;;;7.90;99.90;;;;;;5041360;28;20102;-92
2022/04/25 05:15:46;;;;;;;22.98;17.63;;;7.90;99.90;;;;;;5036120;28;20508;-84
2022/04/25 05:18:12;;;;;;;18.98;13.05;;;7.90;99.90;;;;;;5046670;28;20039;-84
2022/04/25 05:20:37;;;;;;;21.00;17.48;;;7.90;99.90;;;;;;5043467;28;20120;-86
2022/04/25 05:23:03;;;;;;;20.70;16.48;;;8.00;99.90;;;;;;5033601;28;20395;-85
2022/04/25 05:25:29;;;;;;;21.20;17.17;;;8.00;99.90;;;;;;5041588;28;20072;-90
2022/04/25 05:27:56;;;;;;;19.27;13.65;;;8.00;99.90;;;;;;5030749;28;20095;-92
2022/04/25 05:30:23;;;;;;;23.88;18.23;;;7.90;99.90;;;;;;5038715;28;20045;-91
2022/04/25 05:32:50;;;;;;;20.30;17.02;;;8.00;99.90;;;;;;5022016;28;20437;-91
2022/04/25 05:35:21;;;;;;;18.58;11.75;;;8.00;99.90;;;;;;5037801;28;20123;-87
2022/04/25 05:37:47;;;;;;;20.38;12.80;;;7.90;99.90;;;;;;5042820;28;20431;-88
2022/04/25 05:40:14;;;;;;;21.98;16.83;;;7.90;99.90;;;;;;5043108;28;20041;-88
2022/04/25 05:42:41;;;;;;;19.65;11.77;;;8.00;99.90;;;;;;5042013;28;20558;-87
2022/04/25 05:45:12;;;;;;;23.33;14.30;;;8.00;99.90;;;;;;5041086;28;20054;-88
2022/04/25 05:47:38;;;;;;;22.00;16.65;;;7.90;99.90;;;;;;5039368;28;20488;-87
2022/04/25 05:52:49;;;;;;;20.35;15.32;;;8.00;99.90;;;;;;5042307;28;20088;-85
2022/04/25 05:55:15;;;;;;;19.60;15.57;;;8.00;99.90;;;;;;5041965;28;20781;-85
2022/04/25 05:57:41;;;;;;;20.48;15.90;;;8.10;99.90;;;;;;5046163;28;20041;-87
2022/04/25 06:00:09;;;;;;;19.95;15.88;;;8.10;99.90;;;;;;5037743;28;20113;-85
2022/04/25 06:02:39;;;;;;;20.23;16.25;;;8.20;99.90;;;;;;5039462;28;20044;-85
2022/04/25 06:05:06;;;;;;;21.63;12.18;;;8.20;99.90;;;;;;5030109;28;20061;-85
2022/04/25 06:07:33;;;;;;;17.58;12.10;;;8.30;99.90;;;;;;5055321;28;20049;-85
2022/04/25 06:10:00;;;;;;;18.90;14.52;;;8.30;99.90;;;;;;5038427;28;20057;-87
2022/04/25 06:12:26;;;;;;;19.75;15.52;;;8.50;99.90;;;;;;5036607;28;20048;-86
2022/04/25 06:14:56;;;;;;;18.15;15.38;;;8.60;99.90;;;;;;5040621;28;20163;-88
2022/04/25 06:17:22;;;;;;;19.52;15.15;;;8.60;99.90;;;;;;5042706;28;20037;-85
2022/04/25 06:19:48;;;;;;;18.25;14.95;;;8.70;99.90;;;;;;5040503;28;20043;-88
2022/04/25 06:22:13;;;;;;;19.83;15.40;;;8.70;99.90;;;;;;5034201;28;20052;-86
2022/04/25 06:24:39;;;;;;;18.95;15.25;;;8.70;99.90;;;;;;5046027;28;20045;-88
2022/04/25 06:27:08;;;;;;;18.75;15.57;;;8.70;99.90;;;;;;5050392;28;20037;-87
2022/04/25 06:29:33;;;;;;;19.58;14.93;;;8.70;99.90;;;;;;5045952;28;20495;-87
2022/04/25 06:32:02;;;;;;;19.25;15.27;;;8.70;99.90;;;;;;5040089;28;20112;-85
2022/04/25 06:34:28;;;;;;;19.88;15.15;;;8.70;99.90;;;;;;5039994;28;20182;-88
2022/04/25 06:36:53;;;;;;;20.38;16.50;;;8.70;99.90;;;;;;5022980;28;20081;-86
2022/04/25 06:39:19;;;;;;;19.35;15.48;;;8.70;99.90;;;;;;5044890;28;20037;-85
2022/04/25 06:41:45;;;;;;;18.45;12.82;;;8.80;99.90;;;;;;5036169;28;20044;-86
2022/04/25 06:44:11;;;;;;;21.70;16.50;;;8.70;99.90;;;;;;5019783;28;20036;-84
2022/04/25 06:46:36;;;;;;;19.65;16.13;;;8.80;99.90;;;;;;5058323;28;20056;-84
2022/04/25 06:49:20;;;;;;;21.05;17.38;;;8.80;99.90;;;;;;5046764;28;20040;-86
2022/04/25 06:51:47;;;;;;;21.02;17.50;;;8.80;99.90;;;;;;5043349;28;20049;-87
2022/04/25 06:54:16;;;;;;;21.73;17.92;;;8.70;99.90;;;;;;5039713;28;20033;-88
2022/04/25 06:56:42;;;;;;;21.27;16.55;;;8.70;99.90;;;;;;5008588;28;20102;-86
2022/04/25 06:59:07;;;;;;;22.08;16.42;;;8.70;99.90;;;;;;5025284;28;20041;-93
2022/04/25 07:01:33;;;;;;;20.60;16.38;;;8.60;99.90;;;;;;5050551;28;20172;-88
2022/04/25 07:03:59;;;;;;;20.30;17.00;;;8.60;99.90;;;;;;5054424;28;20513;-92
2022/04/25 07:06:25;;;;;;;22.13;17.63;;;8.60;99.90;;;;;;5045663;28;20045;-88
2022/04/25 07:08:52;;;;;;;19.95;17.52;;;8.60;99.90;;;;;;5046587;28;20041;-92
2022/04/25 07:11:18;;;;;;;22.40;17.00;;;8.50;99.90;;;;;;5047075;28;20391;-90
2022/04/25 07:13:45;;;;;;;20.55;17.05;;;8.50;99.90;;;;;;5041433;28;20049;-91
2022/04/25 07:16:12;;;;;;;18.58;13.52;;;8.50;99.90;;;;;;5049000;28;20053;-89
2022/04/25 07:18:38;;;;;;;21.55;17.35;;;8.40;99.90;;;;;;5034872;28;20040;-90
2022/04/25 07:28:48;;;;;;;20.38;16.73;;;8.40;99.90;;;;;;5047086;28;20033;-90
2022/04/25 07:29:18;;;;;;;17.33;14.60;;;8.50;99.90;;;;;;5027598;28;20045;-91
2022/04/25 07:31:44;;;;;;;19.38;15.07;;;8.50;99.90;;;;;;5043449;28;20045;-93
2022/04/25 07:34:09;;;;;;;16.17;13.32;;;8.50;99.90;;;;;;5048954;28;20115;-90
2022/04/25 07:36:36;;;;;;;21.48;14.25;;;8.50;99.90;;;;;;5039561;28;20099;-92
2022/04/25 07:39:03;;;;;;;16.75;10.00;;;8.50;99.90;;;;;;5043848;28;20037;-89
2022/04/25 07:41:28;;;;;;;16.75;11.32;;;8.40;99.90;;;;;;5049450;28;20397;-90
2022/04/25 07:43:54;;;;;;;15.80;13.32;;;8.30;99.90;;;;;;5046292;28;20041;-90
2022/04/25 07:46:23;;;;;;;18.70;13.48;;;8.40;99.90;;;;;;5044675;28;20053;-89
2022/04/25 07:48:49;;;;;;;17.92;13.75;;;8.50;99.90;;;;;;5046378;28;20388;-91
2022/04/25 07:51:15;;;;;;;17.95;12.05;;;8.50;99.90;;;;;;5039511;28;20044;-88
2022/04/25 07:53:41;;;;;;;17.10;14.05;;;8.40;99.90;;;;;;5039559;28;20049;-88
2022/04/25 07:56:07;;;;;;;18.77;13.70;;;8.50;99.90;;;;;;5041401;28;20057;-85
2022/04/25 07:58:34;;;;;;;17.60;11.40;;;8.50;99.90;;;;;;5041905;28;20044;-85
2022/04/25 08:01:01;;;;;;;17.92;14.35;;;8.40;99.90;;;;;;5045780;28;20068;-87
2022/04/25 08:03:27;;;;;;;19.13;14.63;;;8.40;99.90;;;;;;5043387;28;20049;-87
2022/04/25 08:05:52;;;;;;;18.33;14.45;;;8.40;99.90;;;;;;5034572;28;20032;-89
2022/04/25 08:08:18;;;;;;;19.65;14.48;;;8.40;99.90;;;;;;5040783;28;20037;-87
2022/04/25 08:10:43;;;;;;;17.70;14.25;;;8.50;99.90;;;;;;5043871;28;20049;-91
2022/04/25 08:18:38;;;;;;;18.23;13.68;;;8.50;99.90;;;;;;5032785;28;20056;-88
2022/04/25 08:21:04;;;;;;;19.05;15.45;;;8.60;99.90;;;;;;5050066;28;20037;-92
2022/04/25 08:23:29;;;;;;;18.15;13.00;;;8.60;99.90;;;;;;5043045;28;20040;-93
2022/04/25 08:25:55;;;;;;;18.50;15.13;;;8.60;99.90;;;;;;5043684;28;20131;-93
2022/04/25 08:28:20;;;;;;;19.13;15.32;;;8.70;99.90;;;;;;5041061;28;20484;-93
2022/04/25 08:30:46;;;;;;;19.13;15.05;;;8.70;99.90;;;;;;5047708;28;20044;-93
2022/04/25 08:33:12;;;;;;;19.95;15.15;;;8.80;99.90;;;;;;5045892;28;20167;-93
2022/04/25 08:35:38;;;;;;;20.25;13.02;;;8.90;99.90;;;;;;5051360;28;20109;-92
2022/04/25 08:38:05;;;;;;;18.58;15.35;;;8.90;99.90;;;;;;5049885;28;20080;-91
2022/04/25 08:40:31;;;;;;;20.63;17.05;;;9.00;99.90;;;;;;5029040;28;20088;-93
2022/04/25 08:42:58;;;;;;;20.85;16.25;;;9.10;99.90;;;;;;5052574;28;20339;-91
2022/04/25 08:45:24;;;;;;;21.48;16.05;;;9.10;99.90;;;;;;5047419;28;20461;-93
2022/04/25 08:47:54;;;;;;;19.25;15.35;;;9.20;99.90;;;;;;5049474;28;20083;-92
2022/04/25 08:50:21;;;;;;;20.85;15.95;;;9.20;99.90;;;;;;5045956;28;20049;-92
2022/04/25 08:52:48;;;;;;;19.30;12.75;;;9.10;99.90;;;;;;5051577;28;20053;-93
2022/04/25 08:55:15;;;;;;;18.65;15.95;;;9.10;99.90;;;;;;5031645;28;20131;-93
2022/04/25 08:57:45;;;;;;;21.42;15.60;;;9.20;99.90;;;;;;5048865;28;20045;-93
2022/04/25 09:00:12;;;;;;;22.35;15.15;;;9.20;99.90;;;;;;5048634;28;20130;-94
2022/04/25 09:02:39;;;;;;;22.17;15.90;;;9.30;99.90;;;;;;5030423;28;20049;-94
2022/04/25 09:05:12;;;;;;;19.85;15.18;;;9.40;99.90;;;;;;5050667;28;20048;-95
2022/04/25 09:07:38;;;;;;;18.55;14.63;;;9.50;99.90;;;;;;5039540;28;20544;-93
2022/04/25 09:10:08;;;;;;;18.90;15.20;;;9.60;99.90;;;;;;5049207;28;20083;-92
2022/04/25 09:12:38;;;;;;;17.38;14.75;;;9.60;99.90;;;;;;5049647;28;20037;-93
2022/04/25 09:15:05;;;;;;;18.20;14.68;;;9.70;99.90;;;;;;5042818;28;20052;-94
2022/04/25 09:17:32;;;;;;;18.55;14.85;;;9.70;99.90;;;;;;5047286;28;20049;-93
2022/04/25 09:19:58;;;;;;;18.13;15.52;;;9.80;99.90;;;;;;5050290;28;20056;-92
2022/04/25 09:22:32;;;;;;;18.63;14.70;;;9.80;99.90;;;;;;5048960;28;20033;-94
2022/04/25 09:25:10;;;;;;;16.48;14.15;;;9.80;99.90;;;;;;5049374;28;20047;-94
2022/04/25 09:27:36;;;;;;;15.68;13.77;;;9.80;99.90;;;;;;5043089;28;20045;-94
2022/04/25 09:30:18;;;;;;;16.85;14.48;;;9.90;99.90;;;;;;5051719;28;20043;-93
2022/04/25 09:32:45;;;;;;;16.98;13.82;;;10.00;99.90;;;;;;5051538;28;20049;-94
2022/04/25 09:35:29;;;;;;;15.88;13.38;;;10.00;99.90;;;;;;5043277;28;20045;-93
2022/04/25 09:37:57;;;;;;;15.85;12.98;;;10.10;99.90;;;;;;5051090;28;20250;-93
2022/04/25 09:40:25;;;;;;;16.00;12.40;;;10.20;99.90;;;;;;5039595;28;20146;-93
2022/04/25 09:43:15;;;;;;;14.73;11.82;;;10.20;99.90;;;;;;5053345;28;20041;-94
2022/04/25 09:45:42;;;;;;;14.70;11.63;;;10.20;99.90;;;;;;5055750;28;20041;-92
2022/04/25 09:48:16;;;;;;;15.18;10.88;;;10.20;99.90;;;;;;5052077;28;20076;-93
2022/04/25 09:51:17;;;;;;;13.52;10.93;;;10.20;99.90;;;;;;5052993;28;20045;-93
2022/04/25 09:53:46;;;;;;;;;;;10.20;99.90;;;;;;4993165;28;20064;-94
2022/04/25 09:56:17;;;;;;;13.70;10.68;;;10.00;99.90;;;;;;4962920;28;19976;-95
2022/04/25 09:58:44;;;;;;;15.90;11.18;;;10.00;99.90;;;;;;4997002;28;20162;-92
2022/04/25 10:01:14;;;;;;;17.65;12.00;;;10.00;99.90;;;;;;5004809;28;20054;-92
2022/04/25 10:03:41;;;;;;;15.60;12.30;;;9.80;99.90;;;;;;4975749;28;20103;-94
2022/04/25 10:06:07;;;;;;;14.32;11.20;;;9.80;99.90;;;;;;4988681;28;20058;-94
2022/04/25 10:08:35;;;;;;;15.68;11.60;;;9.70;99.90;;;;;;5006371;28;20054;-90
2022/04/25 10:11:02;;;;;;;13.65;11.25;;;9.80;99.90;;;;;;5001346;28;20112;-93
2022/04/25 10:13:30;;;;;;;13.60;11.00;;;9.70;99.90;;;;;;4996958;28;20065;-93
2022/04/25 10:15:56;;;;;;;15.73;11.98;;;9.70;99.90;;;;;;4966505;28;20061;-94
2022/04/25 10:18:23;;;;;;;13.50;11.48;;;9.70;99.90;;;;;;4988411;28;20073;-94
2022/04/25 10:20:49;;;;;;;15.63;11.23;;;9.80;99.90;;;;;;5004107;28;20069;-93
2022/04/25 10:23:16;;;;;;;14.02;10.43;;;9.80;99.90;;;;;;5005068;28;20042;-93
2022/04/25 10:26:01;;;;;;;14.23;10.50;;;9.90;99.90;;;;;;4989568;28;20060;-96
2022/04/25 10:28:48;;;;;;;13.55;10.27;;;10.00;99.90;;;;;;5045667;28;20079;-94
2022/04/25 10:31:21;;;;;;;14.38;9.90;;;10.10;99.90;;;;;;5052968;28;20425;-93
2022/04/25 10:33:52;;;;;;;12.75;10.20;;;10.10;99.90;;;;;;5052634;28;20437;-94
2022/04/25 10:36:45;;;;;;;15.75;10.02;;;10.20;99.90;;;;;;5053246;28;20476;-93
2022/04/25 10:39:20;;;;;;;13.75;9.65;;;10.20;99.90;;;;;;5052421;28;20435;-94
2022/04/25 10:44:42;;;;;;;13.07;10.05;;;10.30;99.90;;;;;;5055620;28;20508;-93
2022/04/25 10:47:12;;;;;;;13.82;9.85;;;10.30;99.90;;;;;;5051519;28;20049;-93
2022/04/25 10:49:46;;;;;;;12.60;9.93;;;10.40;99.90;;;;;;5055373;28;20048;-93
2022/04/25 10:52:33;;;;;;;13.30;9.90;;;10.50;99.90;;;;;;5059972;28;20037;-93
2022/04/25 10:55:19;;;;;;;13.20;9.57;;;10.60;99.90;;;;;;5050670;28;20045;-93
2022/04/25 10:58:04;;;;;;;14.52;10.77;;;10.70;99.90;;;;;;5055477;28;20061;-93
2022/04/25 11:00:41;;;;;;;16.85;10.68;;;11.00;99.90;;;;;;5057030;28;20125;-92
2022/04/25 11:03:09;;;;;;;14.25;9.48;;;11.20;99.90;;;;;;5054894;28;20098;-93
2022/04/25 11:05:37;;;;;;;12.73;9.57;;;11.50;99.90;;;;;;5056104;28;20075;-94
2022/04/25 11:08:23;;;;;;;12.50;9.30;;;11.70;99.90;;;;;;5062489;28;20045;-96
2022/04/25 11:11:08;;;;;;;11.95;8.98;;;11.70;99.90;;;;;;5050451;28;20049;-93
2022/04/25 11:13:49;;;;;;;12.73;9.30;;;11.90;99.90;;;;;;5057349;28;20493;-94
2022/04/25 11:16:18;;;;;;;12.70;9.60;;;11.90;99.90;;;;;;5055639;28;20339;-93
2022/04/25 11:18:45;;;;;;;12.65;9.65;;;11.90;99.90;;;;;;5059405;28;20048;-92
2022/04/25 11:21:13;;;;;;;12.68;9.40;;;11.80;99.90;;;;;;5052740;28;20388;-96
2022/04/25 11:23:44;;;;;;;13.60;9.45;;;11.80;99.90;;;;;;5044629;28;20051;-93
2022/04/25 11:26:23;;;;;;;11.40;9.27;;;11.90;99.90;;;;;;5056462;28;20108;-90
2022/04/25 11:28:55;;;;;;;13.25;9.77;;;11.90;99.90;;;;;;5056805;28;20048;-93
2022/04/25 11:31:22;;;;;;;13.43;10.10;;;11.90;99.90;;;;;;5057696;28;20428;-94
2022/04/25 11:33:50;;;;;;;13.85;10.23;;;11.90;99.90;;;;;;5055245;28;20044;-90
2022/04/25 11:36:15;;;;;;;12.40;9.50;;;12.00;99.90;;;;;;5049393;28;20090;-93
2022/04/25 11:41:32;;;;;;;12.05;9.90;;;12.10;99.90;;;;;;5060546;28;20099;-92
2022/04/25 11:43:58;;;;;;;12.45;10.07;;;11.90;99.90;;;;;;5060055;28;20519;-92
2022/04/25 11:46:28;;;;;;;11.48;9.93;;;11.90;99.90;;;;;;5058724;28;20044;-93
2022/04/25 11:48:54;;;;;;;12.10;10.00;;;11.90;99.90;;;;;;5055462;28;20393;-93
2022/04/25 11:51:37;;;;;;;13.35;9.80;;;12.00;99.90;;;;;;5054315;28;20072;-93
2022/04/25 11:54:08;;;;;;;12.98;10.07;;;12.00;99.90;;;;;;5058305;28;20049;-92
2022/04/25 11:56:37;;;;;;;13.52;9.93;;;12.10;99.90;;;;;;5055055;28;20134;-92
2022/04/25 11:59:14;;;;;;;12.05;9.85;;;12.30;99.90;;;;;;5054691;28;20087;-93
2022/04/25 12:01:41;;;;;;;12.23;9.32;;;12.40;99.90;;;;;;5041501;28;20083;-93
2022/04/25 12:04:22;;;;;;;11.30;9.02;;;12.70;99.90;;;;;;5037383;28;20052;-92
2022/04/25 12:06:53;;;;;;;12.70;9.15;;;12.90;99.90;;;;;;5034285;28;20048;-93
2022/04/25 12:17:54;;;;;;;12.35;9.40;;;13.30;99.90;;;;;;5068868;28;20933;-94
2022/04/25 12:20:30;;;;;;;10.50;8.23;;;13.40;99.90;;;;;;5055460;28;20052;-92
2022/04/25 12:22:58;;;;;;;12.32;8.93;;;13.50;99.90;;;;;;5024987;28;20067;-93
2022/04/25 12:25:26;;;;;;;12.23;8.93;;;13.70;99.90;;;;;;5050483;28;20071;-93
2022/04/25 12:28:18;;;;;;;11.27;8.73;;;13.80;99.90;;;;;;5052866;28;20396;-94
2022/04/25 12:31:03;;;;;;;10.82;8.38;;;14.00;99.90;;;;;;5035461;28;20049;-92
2022/04/25 12:33:45;;;;;;;13.13;9.50;;;14.00;99.90;;;;;;5057570;28;20053;-93
2022/04/25 12:36:20;;;;;;;12.50;9.38;;;13.80;99.90;;;;;;5029500;28;20090;-94
2022/04/25 12:39:08;;;;;;;12.13;8.90;;;13.80;99.90;;;;;;5034765;28;20049;-93
2022/04/25 12:41:39;;;;;;;12.13;8.93;;;13.80;99.90;;;;;;5033017;28;20047;-93
2022/04/25 12:44:10;;;;;;;11.27;8.63;;;13.70;99.90;;;;;;5032253;28;20125;-94
2022/04/25 12:46:47;;;;;;;12.82;9.38;;;13.80;99.90;;;;;;5030547;28;20063;-93
2022/04/25 12:49:20;;;;;;;12.20;9.27;;;13.90;99.90;;;;;;5035237;28;20108;-93
2022/04/25 12:52:07;;;;;;;13.48;9.82;;;14.00;99.90;;;;;;5032653;28;20050;-93
2022/04/25 12:54:47;;;;;;;12.05;9.18;;;13.90;99.90;;;;;;5001012;28;20218;-94
2022/04/25 12:57:18;;;;;;;12.85;9.68;;;13.90;99.90;;;;;;5033310;28;20076;-94
2022/04/25 12:59:44;;;;;;;;;;;13.90;99.90;;;;;;5033895;28;20088;-92
2022/04/25 13:02:14;;;;;;;12.50;9.52;;;13.80;99.90;;;;;;5034655;28;20015;-92
2022/04/25 13:05:00;;;;;;;11.77;8.88;;;13.80;99.90;;;;;;5032556;28;20038;-93
2022/04/25 13:07:35;;;;;;;13.73;10.27;;;13.80;99.90;;;;;;5031979;28;20049;-93
2022/04/25 13:10:03;;;;;;;12.68;10.07;;;13.70;99.90;;;;;;5034802;28;20045;-91
2022/04/25 13:12:33;;;;;;;14.32;10.65;;;13.70;99.90;;;;;;5030637;28;20049;-93
2022/04/25 13:14:59;;;;;;;12.60;9.85;;;13.50;99.90;;;;;;5034507;28;20103;-94
2022/04/25 13:17:25;;;;;;;14.00;10.43;;;13.50;99.90;;;;;;5036595;28;20064;-95
2022/04/25 13:19:51;;;;;;;12.48;9.82;;;13.40;99.90;;;;;;5025609;28;20056;-94